<?xml version="1.0" encoding="UTF-8" standalone="no" ?>
<gpx xmlns="http://www.topografix.com/GPX/1/1" xmlns:xsi="http://www.w3.org/2001/XMLSchema-instance" xsi:schemaLocation="http://www.topografix.com/GPX/1/1 http://www.topografix.com/GPX/1/1/gpx.xsd" version="1.1" creator="VisuGPX - https://www.visugpx.com">
  <metadata>
    <name>15658877-2022-10-07 11:36:52</name>
  </metadata>
  <trk>
    <name><![CDATA[15658877-2022-10-07 11:36:52]]></name>
    <extensions>
      <line xmlns="http://www.topografix.com/GPX/gpx_style/0/2">
        <color>0000FF</color>
        <width>4</width>
      </line>
    </extensions>
    <trkseg>
      <trkpt lat="47.58658" lon="0.45913">
        <ele>83</ele>
        <time>2022-10-07T19:44:52Z</time>
      </trkpt>
      <trkpt lat="47.58648" lon="0.45903">
        <ele>84</ele>
        <time>2022-10-07T19:45:08Z</time>
      </trkpt>
      <trkpt lat="47.58632" lon="0.45881">
        <ele>86</ele>
        <time>2022-10-07T19:45:37Z</time>
      </trkpt>
      <trkpt lat="47.58621" lon="0.45884">
        <ele>86</ele>
        <time>2022-10-07T19:45:52Z</time>
      </trkpt>
      <trkpt lat="47.58599" lon="0.45893">
        <ele>85</ele>
        <time>2022-10-07T19:46:23Z</time>
      </trkpt>
      <trkpt lat="47.58561" lon="0.45914">
        <ele>85</ele>
        <time>2022-10-07T19:47:17Z</time>
      </trkpt>
      <trkpt lat="47.58511" lon="0.45958">
        <ele>85</ele>
        <time>2022-10-07T19:48:34Z</time>
      </trkpt>
      <trkpt lat="47.58483" lon="0.4598">
        <ele>85</ele>
        <time>2022-10-07T19:49:17Z</time>
      </trkpt>
      <trkpt lat="47.58449" lon="0.45996">
        <ele>85</ele>
        <time>2022-10-07T19:50:04Z</time>
      </trkpt>
      <trkpt lat="47.58415" lon="0.46005">
        <ele>87</ele>
        <time>2022-10-07T19:50:50Z</time>
      </trkpt>
      <trkpt lat="47.5839" lon="0.46008">
        <ele>87</ele>
        <time>2022-10-07T19:51:24Z</time>
      </trkpt>
      <trkpt lat="47.58368" lon="0.46006">
        <ele>87</ele>
        <time>2022-10-07T19:51:53Z</time>
      </trkpt>
      <trkpt lat="47.58257" lon="0.46005">
        <ele>89</ele>
        <time>2022-10-07T19:54:21Z</time>
      </trkpt>
      <trkpt lat="47.58234" lon="0.46003">
        <ele>89</ele>
        <time>2022-10-07T19:54:52Z</time>
      </trkpt>
      <trkpt lat="47.58223" lon="0.46001">
        <ele>89</ele>
        <time>2022-10-07T19:55:07Z</time>
      </trkpt>
      <trkpt lat="47.58199" lon="0.4599">
        <ele>90</ele>
        <time>2022-10-07T19:55:40Z</time>
      </trkpt>
      <trkpt lat="47.58188" lon="0.45981">
        <ele>90</ele>
        <time>2022-10-07T19:55:57Z</time>
      </trkpt>
      <trkpt lat="47.58179" lon="0.45971">
        <ele>90</ele>
        <time>2022-10-07T19:56:12Z</time>
      </trkpt>
      <trkpt lat="47.58162" lon="0.45946">
        <ele>89</ele>
        <time>2022-10-07T19:56:44Z</time>
      </trkpt>
      <trkpt lat="47.5809" lon="0.4582">
        <ele>90</ele>
        <time>2022-10-07T19:59:13Z</time>
      </trkpt>
      <trkpt lat="47.58084" lon="0.45811">
        <ele>90</ele>
        <time>2022-10-07T19:59:24Z</time>
      </trkpt>
      <trkpt lat="47.58071" lon="0.45806">
        <ele>91</ele>
        <time>2022-10-07T19:59:42Z</time>
      </trkpt>
      <trkpt lat="47.58061" lon="0.45813">
        <ele>91</ele>
        <time>2022-10-07T19:59:57Z</time>
      </trkpt>
      <trkpt lat="47.58038" lon="0.45833">
        <ele>91</ele>
        <time>2022-10-07T20:00:32Z</time>
      </trkpt>
      <trkpt lat="47.58018" lon="0.45855">
        <ele>92</ele>
        <time>2022-10-07T20:01:06Z</time>
      </trkpt>
      <trkpt lat="47.57965" lon="0.45919">
        <ele>93</ele>
        <time>2022-10-07T20:02:37Z</time>
      </trkpt>
      <trkpt lat="47.57955" lon="0.45929">
        <ele>93</ele>
        <time>2022-10-07T20:02:53Z</time>
      </trkpt>
      <trkpt lat="47.57944" lon="0.45936">
        <ele>93</ele>
        <time>2022-10-07T20:03:09Z</time>
      </trkpt>
      <trkpt lat="47.57926" lon="0.45938">
        <ele>93</ele>
        <time>2022-10-07T20:03:33Z</time>
      </trkpt>
      <trkpt lat="47.57923" lon="0.45934">
        <ele>93</ele>
        <time>2022-10-07T20:03:38Z</time>
      </trkpt>
      <trkpt lat="47.57924" lon="0.45926">
        <ele>93</ele>
        <time>2022-10-07T20:03:46Z</time>
      </trkpt>
      <trkpt lat="47.57924" lon="0.45932">
        <ele>93</ele>
        <time>2022-10-07T20:03:51Z</time>
      </trkpt>
      <trkpt lat="47.57928" lon="0.45935">
        <ele>93</ele>
        <time>2022-10-07T20:03:57Z</time>
      </trkpt>
      <trkpt lat="47.57929" lon="0.4594">
        <ele>93</ele>
        <time>2022-10-07T20:04:02Z</time>
      </trkpt>
      <trkpt lat="47.57926" lon="0.45935">
        <ele>93</ele>
        <time>2022-10-07T20:04:08Z</time>
      </trkpt>
      <trkpt lat="47.57919" lon="0.45941">
        <ele>93</ele>
        <time>2022-10-07T20:04:19Z</time>
      </trkpt>
      <trkpt lat="47.57908" lon="0.45942">
        <ele>94</ele>
        <time>2022-10-07T20:04:33Z</time>
      </trkpt>
      <trkpt lat="47.57886" lon="0.45939">
        <ele>94</ele>
        <time>2022-10-07T20:05:03Z</time>
      </trkpt>
      <trkpt lat="47.57874" lon="0.4594">
        <ele>94</ele>
        <time>2022-10-07T20:05:19Z</time>
      </trkpt>
      <trkpt lat="47.5786" lon="0.45939">
        <ele>95</ele>
        <time>2022-10-07T20:05:38Z</time>
      </trkpt>
      <trkpt lat="47.57837" lon="0.45933">
        <ele>95</ele>
        <time>2022-10-07T20:06:09Z</time>
      </trkpt>
      <trkpt lat="47.57817" lon="0.45931">
        <ele>95</ele>
        <time>2022-10-07T20:06:35Z</time>
      </trkpt>
      <trkpt lat="47.57804" lon="0.45931">
        <ele>95</ele>
        <time>2022-10-07T20:06:53Z</time>
      </trkpt>
      <trkpt lat="47.57794" lon="0.45938">
        <ele>96</ele>
        <time>2022-10-07T20:07:08Z</time>
      </trkpt>
      <trkpt lat="47.57795" lon="0.45954">
        <ele>97</ele>
        <time>2022-10-07T20:07:22Z</time>
      </trkpt>
      <trkpt lat="47.57803" lon="0.45972">
        <ele>98</ele>
        <time>2022-10-07T20:07:41Z</time>
      </trkpt>
      <trkpt lat="47.57819" lon="0.45984">
        <ele>99</ele>
        <time>2022-10-07T20:08:05Z</time>
      </trkpt>
      <trkpt lat="47.57831" lon="0.46">
        <ele>99</ele>
        <time>2022-10-07T20:08:27Z</time>
      </trkpt>
      <trkpt lat="47.57859" lon="0.46027">
        <ele>100</ele>
        <time>2022-10-07T20:09:11Z</time>
      </trkpt>
      <trkpt lat="47.5789" lon="0.46048">
        <ele>100</ele>
        <time>2022-10-07T20:09:57Z</time>
      </trkpt>
      <trkpt lat="47.57904" lon="0.4606">
        <ele>101</ele>
        <time>2022-10-07T20:10:19Z</time>
      </trkpt>
      <trkpt lat="47.57911" lon="0.46074">
        <ele>102</ele>
        <time>2022-10-07T20:10:34Z</time>
      </trkpt>
      <trkpt lat="47.57923" lon="0.46107">
        <ele>104</ele>
        <time>2022-10-07T20:11:08Z</time>
      </trkpt>
      <trkpt lat="47.57929" lon="0.46153">
        <ele>107</ele>
        <time>2022-10-07T20:11:50Z</time>
      </trkpt>
      <trkpt lat="47.5793" lon="0.46248">
        <ele>109</ele>
        <time>2022-10-07T20:13:16Z</time>
      </trkpt>
      <trkpt lat="47.57935" lon="0.46416">
        <ele>112</ele>
        <time>2022-10-07T20:15:47Z</time>
      </trkpt>
      <trkpt lat="47.57935" lon="0.46445">
        <ele>113</ele>
        <time>2022-10-07T20:16:13Z</time>
      </trkpt>
      <trkpt lat="47.5793" lon="0.46488">
        <ele>114</ele>
        <time>2022-10-07T20:16:52Z</time>
      </trkpt>
      <trkpt lat="47.57922" lon="0.46544">
        <ele>114</ele>
        <time>2022-10-07T20:17:44Z</time>
      </trkpt>
      <trkpt lat="47.57915" lon="0.46571">
        <ele>115</ele>
        <time>2022-10-07T20:18:10Z</time>
      </trkpt>
      <trkpt lat="47.57908" lon="0.46582">
        <ele>115</ele>
        <time>2022-10-07T20:18:24Z</time>
      </trkpt>
      <trkpt lat="47.57861" lon="0.46608">
        <ele>116</ele>
        <time>2022-10-07T20:19:31Z</time>
      </trkpt>
      <trkpt lat="47.57842" lon="0.46609">
        <ele>116</ele>
        <time>2022-10-07T20:19:56Z</time>
      </trkpt>
      <trkpt lat="47.57833" lon="0.46615">
        <ele>116</ele>
        <time>2022-10-07T20:20:09Z</time>
      </trkpt>
      <trkpt lat="47.57827" lon="0.46627">
        <ele>116</ele>
        <time>2022-10-07T20:20:23Z</time>
      </trkpt>
      <trkpt lat="47.5782" lon="0.46655">
        <ele>117</ele>
        <time>2022-10-07T20:20:49Z</time>
      </trkpt>
      <trkpt lat="47.57813" lon="0.46694">
        <ele>120</ele>
        <time>2022-10-07T20:21:26Z</time>
      </trkpt>
      <trkpt lat="47.57802" lon="0.46727">
        <ele>123</ele>
        <time>2022-10-07T20:21:59Z</time>
      </trkpt>
      <trkpt lat="47.57776" lon="0.46772">
        <ele>124</ele>
        <time>2022-10-07T20:22:52Z</time>
      </trkpt>
      <trkpt lat="47.57764" lon="0.46784">
        <ele>123</ele>
        <time>2022-10-07T20:23:12Z</time>
      </trkpt>
      <trkpt lat="47.57756" lon="0.46796">
        <ele>123</ele>
        <time>2022-10-07T20:23:27Z</time>
      </trkpt>
      <trkpt lat="47.57691" lon="0.46909">
        <ele>117</ele>
        <time>2022-10-07T20:25:40Z</time>
      </trkpt>
      <trkpt lat="47.5767" lon="0.46941">
        <ele>116</ele>
        <time>2022-10-07T20:26:21Z</time>
      </trkpt>
      <trkpt lat="47.57665" lon="0.46951">
        <ele>116</ele>
        <time>2022-10-07T20:26:32Z</time>
      </trkpt>
      <trkpt lat="47.57664" lon="0.4696">
        <ele>117</ele>
        <time>2022-10-07T20:26:40Z</time>
      </trkpt>
      <trkpt lat="47.57671" lon="0.46971">
        <ele>117</ele>
        <time>2022-10-07T20:26:54Z</time>
      </trkpt>
      <trkpt lat="47.5771" lon="0.47013">
        <ele>117</ele>
        <time>2022-10-07T20:27:58Z</time>
      </trkpt>
      <trkpt lat="47.57741" lon="0.47045">
        <ele>117</ele>
        <time>2022-10-07T20:28:48Z</time>
      </trkpt>
      <trkpt lat="47.57755" lon="0.47068">
        <ele>117</ele>
        <time>2022-10-07T20:29:16Z</time>
      </trkpt>
      <trkpt lat="47.57772" lon="0.47136">
        <ele>117</ele>
        <time>2022-10-07T20:30:22Z</time>
      </trkpt>
      <trkpt lat="47.5779" lon="0.47189">
        <ele>117</ele>
        <time>2022-10-07T20:31:15Z</time>
      </trkpt>
      <trkpt lat="47.57808" lon="0.47223">
        <ele>116</ele>
        <time>2022-10-07T20:31:54Z</time>
      </trkpt>
      <trkpt lat="47.57853" lon="0.47297">
        <ele>116</ele>
        <time>2022-10-07T20:33:24Z</time>
      </trkpt>
      <trkpt lat="47.57872" lon="0.47347">
        <ele>116</ele>
        <time>2022-10-07T20:34:15Z</time>
      </trkpt>
      <trkpt lat="47.57868" lon="0.47359">
        <ele>116</ele>
        <time>2022-10-07T20:34:27Z</time>
      </trkpt>
      <trkpt lat="47.57822" lon="0.47425">
        <ele>116</ele>
        <time>2022-10-07T20:35:53Z</time>
      </trkpt>
      <trkpt lat="47.57791" lon="0.47479">
        <ele>115</ele>
        <time>2022-10-07T20:36:57Z</time>
      </trkpt>
      <trkpt lat="47.57776" lon="0.475">
        <ele>115</ele>
        <time>2022-10-07T20:37:24Z</time>
      </trkpt>
      <trkpt lat="47.57756" lon="0.47535">
        <ele>115</ele>
        <time>2022-10-07T20:38:05Z</time>
      </trkpt>
      <trkpt lat="47.57751" lon="0.47548">
        <ele>114</ele>
        <time>2022-10-07T20:38:19Z</time>
      </trkpt>
      <trkpt lat="47.57733" lon="0.47579">
        <ele>113</ele>
        <time>2022-10-07T20:38:56Z</time>
      </trkpt>
      <trkpt lat="47.57725" lon="0.4759">
        <ele>112</ele>
        <time>2022-10-07T20:39:10Z</time>
      </trkpt>
      <trkpt lat="47.57717" lon="0.47598">
        <ele>112</ele>
        <time>2022-10-07T20:39:23Z</time>
      </trkpt>
      <trkpt lat="47.57689" lon="0.47639">
        <ele>110</ele>
        <time>2022-10-07T20:40:16Z</time>
      </trkpt>
      <trkpt lat="47.57676" lon="0.47662">
        <ele>109</ele>
        <time>2022-10-07T20:40:43Z</time>
      </trkpt>
      <trkpt lat="47.5767" lon="0.47673">
        <ele>108</ele>
        <time>2022-10-07T20:40:55Z</time>
      </trkpt>
      <trkpt lat="47.57651" lon="0.47742">
        <ele>106</ele>
        <time>2022-10-07T20:42:02Z</time>
      </trkpt>
      <trkpt lat="47.57636" lon="0.47766">
        <ele>107</ele>
        <time>2022-10-07T20:42:32Z</time>
      </trkpt>
      <trkpt lat="47.57621" lon="0.47784">
        <ele>107</ele>
        <time>2022-10-07T20:42:58Z</time>
      </trkpt>
      <trkpt lat="47.57594" lon="0.47802">
        <ele>107</ele>
        <time>2022-10-07T20:43:37Z</time>
      </trkpt>
      <trkpt lat="47.57571" lon="0.4783">
        <ele>107</ele>
        <time>2022-10-07T20:44:17Z</time>
      </trkpt>
      <trkpt lat="47.57565" lon="0.47842">
        <ele>107</ele>
        <time>2022-10-07T20:44:30Z</time>
      </trkpt>
      <trkpt lat="47.57545" lon="0.47875">
        <ele>107</ele>
        <time>2022-10-07T20:45:10Z</time>
      </trkpt>
      <trkpt lat="47.57521" lon="0.47906">
        <ele>108</ele>
        <time>2022-10-07T20:45:53Z</time>
      </trkpt>
      <trkpt lat="47.57495" lon="0.47937">
        <ele>108</ele>
        <time>2022-10-07T20:46:37Z</time>
      </trkpt>
      <trkpt lat="47.57462" lon="0.47983">
        <ele>107</ele>
        <time>2022-10-07T20:47:38Z</time>
      </trkpt>
      <trkpt lat="47.57453" lon="0.47991">
        <ele>107</ele>
        <time>2022-10-07T20:47:52Z</time>
      </trkpt>
      <trkpt lat="47.57421" lon="0.48054">
        <ele>105</ele>
        <time>2022-10-07T20:49:03Z</time>
      </trkpt>
      <trkpt lat="47.574" lon="0.48088">
        <ele>104</ele>
        <time>2022-10-07T20:49:44Z</time>
      </trkpt>
      <trkpt lat="47.57392" lon="0.48095">
        <ele>103</ele>
        <time>2022-10-07T20:49:57Z</time>
      </trkpt>
      <trkpt lat="47.57334" lon="0.48117">
        <ele>102</ele>
        <time>2022-10-07T20:51:17Z</time>
      </trkpt>
      <trkpt lat="47.57325" lon="0.48119">
        <ele>103</ele>
        <time>2022-10-07T20:51:29Z</time>
      </trkpt>
      <trkpt lat="47.57278" lon="0.48119">
        <ele>104</ele>
        <time>2022-10-07T20:52:31Z</time>
      </trkpt>
      <trkpt lat="47.57268" lon="0.48121">
        <ele>104</ele>
        <time>2022-10-07T20:52:45Z</time>
      </trkpt>
      <trkpt lat="47.57259" lon="0.48125">
        <ele>104</ele>
        <time>2022-10-07T20:52:57Z</time>
      </trkpt>
      <trkpt lat="47.57251" lon="0.48133">
        <ele>104</ele>
        <time>2022-10-07T20:53:10Z</time>
      </trkpt>
      <trkpt lat="47.57237" lon="0.48156">
        <ele>104</ele>
        <time>2022-10-07T20:53:38Z</time>
      </trkpt>
      <trkpt lat="47.57234" lon="0.48171">
        <ele>104</ele>
        <time>2022-10-07T20:53:52Z</time>
      </trkpt>
      <trkpt lat="47.57236" lon="0.48184">
        <ele>104</ele>
        <time>2022-10-07T20:54:04Z</time>
      </trkpt>
      <trkpt lat="47.5725" lon="0.48219">
        <ele>103</ele>
        <time>2022-10-07T20:54:41Z</time>
      </trkpt>
      <trkpt lat="47.57257" lon="0.48246">
        <ele>102</ele>
        <time>2022-10-07T20:55:07Z</time>
      </trkpt>
      <trkpt lat="47.57272" lon="0.4834">
        <ele>102</ele>
        <time>2022-10-07T20:56:34Z</time>
      </trkpt>
      <trkpt lat="47.57281" lon="0.48341">
        <ele>102</ele>
        <time>2022-10-07T20:56:46Z</time>
      </trkpt>
      <trkpt lat="47.57337" lon="0.48333">
        <ele>100</ele>
        <time>2022-10-07T20:58:01Z</time>
      </trkpt>
      <trkpt lat="47.57368" lon="0.48334">
        <ele>101</ele>
        <time>2022-10-07T20:58:42Z</time>
      </trkpt>
      <trkpt lat="47.57401" lon="0.48337">
        <ele>102</ele>
        <time>2022-10-07T20:59:26Z</time>
      </trkpt>
      <trkpt lat="47.57413" lon="0.48343">
        <ele>102</ele>
        <time>2022-10-07T20:59:43Z</time>
      </trkpt>
      <trkpt lat="47.5742" lon="0.48342">
        <ele>102</ele>
        <time>2022-10-07T20:59:53Z</time>
      </trkpt>
      <trkpt lat="47.5744" lon="0.48346">
        <ele>102</ele>
        <time>2022-10-07T21:00:20Z</time>
      </trkpt>
      <trkpt lat="47.57468" lon="0.48349">
        <ele>102</ele>
        <time>2022-10-07T21:00:57Z</time>
      </trkpt>
      <trkpt lat="47.57477" lon="0.48356">
        <ele>102</ele>
        <time>2022-10-07T21:01:11Z</time>
      </trkpt>
      <trkpt lat="47.57513" lon="0.48357">
        <ele>102</ele>
        <time>2022-10-07T21:01:59Z</time>
      </trkpt>
      <trkpt lat="47.57522" lon="0.4836">
        <ele>102</ele>
        <time>2022-10-07T21:02:11Z</time>
      </trkpt>
      <trkpt lat="47.5756" lon="0.48362">
        <ele>102</ele>
        <time>2022-10-07T21:03:02Z</time>
      </trkpt>
      <trkpt lat="47.5757" lon="0.48361">
        <ele>102</ele>
        <time>2022-10-07T21:03:15Z</time>
      </trkpt>
      <trkpt lat="47.57589" lon="0.48357">
        <ele>103</ele>
        <time>2022-10-07T21:03:41Z</time>
      </trkpt>
      <trkpt lat="47.57617" lon="0.48346">
        <ele>103</ele>
        <time>2022-10-07T21:04:19Z</time>
      </trkpt>
      <trkpt lat="47.57625" lon="0.48339">
        <ele>103</ele>
        <time>2022-10-07T21:04:32Z</time>
      </trkpt>
      <trkpt lat="47.57633" lon="0.48334">
        <ele>104</ele>
        <time>2022-10-07T21:04:43Z</time>
      </trkpt>
      <trkpt lat="47.57636" lon="0.48335">
        <ele>104</ele>
        <time>2022-10-07T21:04:48Z</time>
      </trkpt>
      <trkpt lat="47.57631" lon="0.48335">
        <ele>104</ele>
        <time>2022-10-07T21:04:54Z</time>
      </trkpt>
      <trkpt lat="47.57638" lon="0.48332">
        <ele>104</ele>
        <time>2022-10-07T21:05:04Z</time>
      </trkpt>
      <trkpt lat="47.57647" lon="0.48332">
        <ele>104</ele>
        <time>2022-10-07T21:05:16Z</time>
      </trkpt>
      <trkpt lat="47.57698" lon="0.48337">
        <ele>104</ele>
        <time>2022-10-07T21:06:24Z</time>
      </trkpt>
      <trkpt lat="47.57716" lon="0.48341">
        <ele>104</ele>
        <time>2022-10-07T21:06:48Z</time>
      </trkpt>
      <trkpt lat="47.57789" lon="0.4837">
        <ele>104</ele>
        <time>2022-10-07T21:08:29Z</time>
      </trkpt>
      <trkpt lat="47.57809" lon="0.48376">
        <ele>105</ele>
        <time>2022-10-07T21:08:57Z</time>
      </trkpt>
      <trkpt lat="47.57829" lon="0.48378">
        <ele>105</ele>
        <time>2022-10-07T21:09:23Z</time>
      </trkpt>
      <trkpt lat="47.5784" lon="0.48377">
        <ele>105</ele>
        <time>2022-10-07T21:09:38Z</time>
      </trkpt>
      <trkpt lat="47.5786" lon="0.48375">
        <ele>106</ele>
        <time>2022-10-07T21:10:05Z</time>
      </trkpt>
      <trkpt lat="47.57888" lon="0.48365">
        <ele>107</ele>
        <time>2022-10-07T21:10:43Z</time>
      </trkpt>
      <trkpt lat="47.57897" lon="0.48368">
        <ele>107</ele>
        <time>2022-10-07T21:10:55Z</time>
      </trkpt>
      <trkpt lat="47.57875" lon="0.48444">
        <ele>106</ele>
        <time>2022-10-07T21:12:10Z</time>
      </trkpt>
      <trkpt lat="47.5785" lon="0.48503">
        <ele>105</ele>
        <time>2022-10-07T21:13:13Z</time>
      </trkpt>
      <trkpt lat="47.57846" lon="0.48517">
        <ele>105</ele>
        <time>2022-10-07T21:13:26Z</time>
      </trkpt>
      <trkpt lat="47.57816" lon="0.48575">
        <ele>105</ele>
        <time>2022-10-07T21:14:32Z</time>
      </trkpt>
      <trkpt lat="47.57777" lon="0.48623">
        <ele>105</ele>
        <time>2022-10-07T21:15:40Z</time>
      </trkpt>
      <trkpt lat="47.57725" lon="0.48671">
        <ele>105</ele>
        <time>2022-10-07T21:17:02Z</time>
      </trkpt>
      <trkpt lat="47.57703" lon="0.48696">
        <ele>105</ele>
        <time>2022-10-07T21:17:39Z</time>
      </trkpt>
      <trkpt lat="47.57697" lon="0.4871">
        <ele>105</ele>
        <time>2022-10-07T21:17:53Z</time>
      </trkpt>
      <trkpt lat="47.57684" lon="0.48733">
        <ele>104</ele>
        <time>2022-10-07T21:18:20Z</time>
      </trkpt>
      <trkpt lat="47.57678" lon="0.48746">
        <ele>104</ele>
        <time>2022-10-07T21:18:35Z</time>
      </trkpt>
      <trkpt lat="47.57682" lon="0.48758">
        <ele>104</ele>
        <time>2022-10-07T21:18:47Z</time>
      </trkpt>
      <trkpt lat="47.57749" lon="0.48784">
        <ele>105</ele>
        <time>2022-10-07T21:20:19Z</time>
      </trkpt>
      <trkpt lat="47.57766" lon="0.48793">
        <ele>105</ele>
        <time>2022-10-07T21:20:43Z</time>
      </trkpt>
      <trkpt lat="47.57786" lon="0.48799">
        <ele>106</ele>
        <time>2022-10-07T21:21:10Z</time>
      </trkpt>
      <trkpt lat="47.57814" lon="0.488">
        <ele>106</ele>
        <time>2022-10-07T21:21:48Z</time>
      </trkpt>
      <trkpt lat="47.57844" lon="0.48793">
        <ele>107</ele>
        <time>2022-10-07T21:22:28Z</time>
      </trkpt>
      <trkpt lat="47.57854" lon="0.48792">
        <ele>107</ele>
        <time>2022-10-07T21:22:42Z</time>
      </trkpt>
      <trkpt lat="47.57873" lon="0.48796">
        <ele>108</ele>
        <time>2022-10-07T21:23:07Z</time>
      </trkpt>
      <trkpt lat="47.57891" lon="0.48806">
        <ele>108</ele>
        <time>2022-10-07T21:23:33Z</time>
      </trkpt>
      <trkpt lat="47.57907" lon="0.4882">
        <ele>109</ele>
        <time>2022-10-07T21:23:58Z</time>
      </trkpt>
      <trkpt lat="47.57901" lon="0.48832">
        <ele>109</ele>
        <time>2022-10-07T21:24:11Z</time>
      </trkpt>
      <trkpt lat="47.57894" lon="0.48839">
        <ele>108</ele>
        <time>2022-10-07T21:24:22Z</time>
      </trkpt>
      <trkpt lat="47.5788" lon="0.48857">
        <ele>107</ele>
        <time>2022-10-07T21:24:47Z</time>
      </trkpt>
      <trkpt lat="47.57848" lon="0.48912">
        <ele>104</ele>
        <time>2022-10-07T21:25:53Z</time>
      </trkpt>
      <trkpt lat="47.57833" lon="0.48933">
        <ele>103</ele>
        <time>2022-10-07T21:26:20Z</time>
      </trkpt>
      <trkpt lat="47.57825" lon="0.4894">
        <ele>103</ele>
        <time>2022-10-07T21:26:33Z</time>
      </trkpt>
      <trkpt lat="47.57828" lon="0.48945">
        <ele>103</ele>
        <time>2022-10-07T21:26:39Z</time>
      </trkpt>
      <trkpt lat="47.57827" lon="0.48944">
        <ele>103</ele>
        <time>2022-10-07T21:26:40Z</time>
      </trkpt>
      <trkpt lat="47.57816" lon="0.48949">
        <ele>102</ele>
        <time>2022-10-07T21:26:56Z</time>
      </trkpt>
      <trkpt lat="47.57806" lon="0.48948">
        <ele>102</ele>
        <time>2022-10-07T21:27:09Z</time>
      </trkpt>
      <trkpt lat="47.57786" lon="0.48933">
        <ele>102</ele>
        <time>2022-10-07T21:27:39Z</time>
      </trkpt>
      <trkpt lat="47.57777" lon="0.48922">
        <ele>102</ele>
        <time>2022-10-07T21:27:54Z</time>
      </trkpt>
      <trkpt lat="47.57768" lon="0.48916">
        <ele>102</ele>
        <time>2022-10-07T21:28:08Z</time>
      </trkpt>
      <trkpt lat="47.57758" lon="0.48913">
        <ele>102</ele>
        <time>2022-10-07T21:28:21Z</time>
      </trkpt>
      <trkpt lat="47.57724" lon="0.48918">
        <ele>101</ele>
        <time>2022-10-07T21:29:07Z</time>
      </trkpt>
      <trkpt lat="47.57702" lon="0.48918">
        <ele>100</ele>
        <time>2022-10-07T21:29:36Z</time>
      </trkpt>
      <trkpt lat="47.57681" lon="0.48921">
        <ele>99</ele>
        <time>2022-10-07T21:30:04Z</time>
      </trkpt>
      <trkpt lat="47.5767" lon="0.4892">
        <ele>99</ele>
        <time>2022-10-07T21:30:19Z</time>
      </trkpt>
      <trkpt lat="47.5764" lon="0.48926">
        <ele>98</ele>
        <time>2022-10-07T21:30:59Z</time>
      </trkpt>
      <trkpt lat="47.5762" lon="0.48932">
        <ele>97</ele>
        <time>2022-10-07T21:31:27Z</time>
      </trkpt>
      <trkpt lat="47.57609" lon="0.48937">
        <ele>97</ele>
        <time>2022-10-07T21:31:42Z</time>
      </trkpt>
      <trkpt lat="47.57584" lon="0.48962">
        <ele>96</ele>
        <time>2022-10-07T21:32:22Z</time>
      </trkpt>
      <trkpt lat="47.57548" lon="0.48989">
        <ele>96</ele>
        <time>2022-10-07T21:33:16Z</time>
      </trkpt>
      <trkpt lat="47.57538" lon="0.48992">
        <ele>97</ele>
        <time>2022-10-07T21:33:30Z</time>
      </trkpt>
      <trkpt lat="47.57516" lon="0.48996">
        <ele>97</ele>
        <time>2022-10-07T21:33:59Z</time>
      </trkpt>
      <trkpt lat="47.5749" lon="0.48989">
        <ele>98</ele>
        <time>2022-10-07T21:34:34Z</time>
      </trkpt>
      <trkpt lat="47.5742" lon="0.48984">
        <ele>98</ele>
        <time>2022-10-07T21:36:08Z</time>
      </trkpt>
      <trkpt lat="47.57389" lon="0.48977">
        <ele>98</ele>
        <time>2022-10-07T21:36:50Z</time>
      </trkpt>
      <trkpt lat="47.57349" lon="0.48973">
        <ele>98</ele>
        <time>2022-10-07T21:37:43Z</time>
      </trkpt>
      <trkpt lat="47.57329" lon="0.48968">
        <ele>99</ele>
        <time>2022-10-07T21:38:10Z</time>
      </trkpt>
      <trkpt lat="47.57309" lon="0.48966">
        <ele>100</ele>
        <time>2022-10-07T21:38:37Z</time>
      </trkpt>
      <trkpt lat="47.57275" lon="0.48965">
        <ele>101</ele>
        <time>2022-10-07T21:39:23Z</time>
      </trkpt>
      <trkpt lat="47.5725" lon="0.48968">
        <ele>103</ele>
        <time>2022-10-07T21:39:56Z</time>
      </trkpt>
      <trkpt lat="47.57228" lon="0.48967">
        <ele>103</ele>
        <time>2022-10-07T21:40:25Z</time>
      </trkpt>
      <trkpt lat="47.57206" lon="0.48979">
        <ele>105</ele>
        <time>2022-10-07T21:40:57Z</time>
      </trkpt>
      <trkpt lat="47.572" lon="0.48978">
        <ele>105</ele>
        <time>2022-10-07T21:41:05Z</time>
      </trkpt>
      <trkpt lat="47.57164" lon="0.48989">
        <ele>106</ele>
        <time>2022-10-07T21:41:54Z</time>
      </trkpt>
      <trkpt lat="47.5714" lon="0.48992">
        <ele>105</ele>
        <time>2022-10-07T21:42:26Z</time>
      </trkpt>
      <trkpt lat="47.57101" lon="0.49007">
        <ele>101</ele>
        <time>2022-10-07T21:43:20Z</time>
      </trkpt>
      <trkpt lat="47.57082" lon="0.49012">
        <ele>100</ele>
        <time>2022-10-07T21:43:45Z</time>
      </trkpt>
      <trkpt lat="47.56808" lon="0.49118">
        <ele>97</ele>
        <time>2022-10-07T21:50:03Z</time>
      </trkpt>
      <trkpt lat="47.568" lon="0.49113">
        <ele>97</ele>
        <time>2022-10-07T21:50:15Z</time>
      </trkpt>
      <trkpt lat="47.56786" lon="0.49091">
        <ele>97</ele>
        <time>2022-10-07T21:50:42Z</time>
      </trkpt>
      <trkpt lat="47.56749" lon="0.4904">
        <ele>99</ele>
        <time>2022-10-07T21:51:50Z</time>
      </trkpt>
      <trkpt lat="47.56707" lon="0.48975">
        <ele>101</ele>
        <time>2022-10-07T21:53:11Z</time>
      </trkpt>
      <trkpt lat="47.56602" lon="0.48799">
        <ele>104</ele>
        <time>2022-10-07T21:56:42Z</time>
      </trkpt>
      <trkpt lat="47.56538" lon="0.48674">
        <ele>106</ele>
        <time>2022-10-07T21:59:03Z</time>
      </trkpt>
      <trkpt lat="47.5653" lon="0.48664">
        <ele>106</ele>
        <time>2022-10-07T21:59:17Z</time>
      </trkpt>
      <trkpt lat="47.56526" lon="0.48662">
        <ele>106</ele>
        <time>2022-10-07T21:59:23Z</time>
      </trkpt>
      <trkpt lat="47.56517" lon="0.48669">
        <ele>106</ele>
        <time>2022-10-07T21:59:37Z</time>
      </trkpt>
      <trkpt lat="47.56474" lon="0.48747">
        <ele>103</ele>
        <time>2022-10-07T22:01:07Z</time>
      </trkpt>
      <trkpt lat="47.56439" lon="0.48817">
        <ele>99</ele>
        <time>2022-10-07T22:02:26Z</time>
      </trkpt>
      <trkpt lat="47.56407" lon="0.48871">
        <ele>97</ele>
        <time>2022-10-07T22:03:30Z</time>
      </trkpt>
      <trkpt lat="47.5639" lon="0.48908">
        <ele>97</ele>
        <time>2022-10-07T22:04:11Z</time>
      </trkpt>
      <trkpt lat="47.56377" lon="0.48929">
        <ele>97</ele>
        <time>2022-10-07T22:04:36Z</time>
      </trkpt>
      <trkpt lat="47.56349" lon="0.48988">
        <ele>98</ele>
        <time>2022-10-07T22:05:41Z</time>
      </trkpt>
      <trkpt lat="47.56341" lon="0.48998">
        <ele>98</ele>
        <time>2022-10-07T22:05:55Z</time>
      </trkpt>
      <trkpt lat="47.56329" lon="0.49024">
        <ele>98</ele>
        <time>2022-10-07T22:06:24Z</time>
      </trkpt>
      <trkpt lat="47.56327" lon="0.49036">
        <ele>99</ele>
        <time>2022-10-07T22:06:35Z</time>
      </trkpt>
      <trkpt lat="47.56335" lon="0.49044">
        <ele>98</ele>
        <time>2022-10-07T22:06:48Z</time>
      </trkpt>
      <trkpt lat="47.56358" lon="0.4909">
        <ele>98</ele>
        <time>2022-10-07T22:07:39Z</time>
      </trkpt>
      <trkpt lat="47.56344" lon="0.4907">
        <ele>99</ele>
        <time>2022-10-07T22:08:05Z</time>
      </trkpt>
      <trkpt lat="47.5634" lon="0.49058">
        <ele>99</ele>
        <time>2022-10-07T22:08:17Z</time>
      </trkpt>
      <trkpt lat="47.56333" lon="0.49046">
        <ele>99</ele>
        <time>2022-10-07T22:08:32Z</time>
      </trkpt>
      <trkpt lat="47.56323" lon="0.49046">
        <ele>99</ele>
        <time>2022-10-07T22:08:45Z</time>
      </trkpt>
      <trkpt lat="47.56304" lon="0.49076">
        <ele>100</ele>
        <time>2022-10-07T22:09:22Z</time>
      </trkpt>
      <trkpt lat="47.56297" lon="0.4909">
        <ele>101</ele>
        <time>2022-10-07T22:09:38Z</time>
      </trkpt>
      <trkpt lat="47.56255" lon="0.49164">
        <ele>104</ele>
        <time>2022-10-07T22:11:05Z</time>
      </trkpt>
      <trkpt lat="47.56244" lon="0.49187">
        <ele>104</ele>
        <time>2022-10-07T22:11:30Z</time>
      </trkpt>
      <trkpt lat="47.5623" lon="0.49209">
        <ele>105</ele>
        <time>2022-10-07T22:11:57Z</time>
      </trkpt>
      <trkpt lat="47.56217" lon="0.49235">
        <ele>106</ele>
        <time>2022-10-07T22:12:26Z</time>
      </trkpt>
      <trkpt lat="47.56222" lon="0.49237">
        <ele>106</ele>
        <time>2022-10-07T22:12:33Z</time>
      </trkpt>
      <trkpt lat="47.56226" lon="0.4925">
        <ele>106</ele>
        <time>2022-10-07T22:12:46Z</time>
      </trkpt>
      <trkpt lat="47.56261" lon="0.49325">
        <ele>105</ele>
        <time>2022-10-07T22:14:08Z</time>
      </trkpt>
      <trkpt lat="47.56287" lon="0.49386">
        <ele>104</ele>
        <time>2022-10-07T22:15:13Z</time>
      </trkpt>
      <trkpt lat="47.56306" lon="0.49421">
        <ele>104</ele>
        <time>2022-10-07T22:15:54Z</time>
      </trkpt>
      <trkpt lat="47.56322" lon="0.49456">
        <ele>103</ele>
        <time>2022-10-07T22:16:32Z</time>
      </trkpt>
      <trkpt lat="47.56336" lon="0.49492">
        <ele>102</ele>
        <time>2022-10-07T22:17:09Z</time>
      </trkpt>
      <trkpt lat="47.56363" lon="0.4957">
        <ele>101</ele>
        <time>2022-10-07T22:18:28Z</time>
      </trkpt>
      <trkpt lat="47.56379" lon="0.49625">
        <ele>100</ele>
        <time>2022-10-07T22:19:22Z</time>
      </trkpt>
      <trkpt lat="47.56388" lon="0.49667">
        <ele>99</ele>
        <time>2022-10-07T22:20:02Z</time>
      </trkpt>
      <trkpt lat="47.56399" lon="0.49781">
        <ele>98</ele>
        <time>2022-10-07T22:21:46Z</time>
      </trkpt>
      <trkpt lat="47.56414" lon="0.49836">
        <ele>97</ele>
        <time>2022-10-07T22:22:39Z</time>
      </trkpt>
      <trkpt lat="47.56423" lon="0.49877">
        <ele>96</ele>
        <time>2022-10-07T22:23:18Z</time>
      </trkpt>
      <trkpt lat="47.56439" lon="0.49913">
        <ele>96</ele>
        <time>2022-10-07T22:23:57Z</time>
      </trkpt>
      <trkpt lat="47.56447" lon="0.49922">
        <ele>96</ele>
        <time>2022-10-07T22:24:10Z</time>
      </trkpt>
      <trkpt lat="47.56456" lon="0.49925">
        <ele>96</ele>
        <time>2022-10-07T22:24:22Z</time>
      </trkpt>
      <trkpt lat="47.56466" lon="0.49926">
        <ele>96</ele>
        <time>2022-10-07T22:24:36Z</time>
      </trkpt>
      <trkpt lat="47.56495" lon="0.49922">
        <ele>96</ele>
        <time>2022-10-07T22:25:15Z</time>
      </trkpt>
      <trkpt lat="47.56554" lon="0.49901">
        <ele>96</ele>
        <time>2022-10-07T22:26:35Z</time>
      </trkpt>
      <trkpt lat="47.56564" lon="0.49903">
        <ele>96</ele>
        <time>2022-10-07T22:26:49Z</time>
      </trkpt>
      <trkpt lat="47.56573" lon="0.49907">
        <ele>96</ele>
        <time>2022-10-07T22:27:01Z</time>
      </trkpt>
      <trkpt lat="47.56591" lon="0.4992">
        <ele>96</ele>
        <time>2022-10-07T22:27:28Z</time>
      </trkpt>
      <trkpt lat="47.56683" lon="0.50042">
        <ele>96</ele>
        <time>2022-10-07T22:30:13Z</time>
      </trkpt>
      <trkpt lat="47.56704" lon="0.50073">
        <ele>95</ele>
        <time>2022-10-07T22:30:53Z</time>
      </trkpt>
      <trkpt lat="47.56712" lon="0.50078">
        <ele>95</ele>
        <time>2022-10-07T22:31:04Z</time>
      </trkpt>
      <trkpt lat="47.5672" lon="0.50075">
        <ele>95</ele>
        <time>2022-10-07T22:31:15Z</time>
      </trkpt>
      <trkpt lat="47.56729" lon="0.50066">
        <ele>95</ele>
        <time>2022-10-07T22:31:30Z</time>
      </trkpt>
      <trkpt lat="47.56739" lon="0.50066">
        <ele>95</ele>
        <time>2022-10-07T22:31:43Z</time>
      </trkpt>
      <trkpt lat="47.56747" lon="0.50073">
        <ele>95</ele>
        <time>2022-10-07T22:31:55Z</time>
      </trkpt>
      <trkpt lat="47.56765" lon="0.50105">
        <ele>95</ele>
        <time>2022-10-07T22:32:33Z</time>
      </trkpt>
      <trkpt lat="47.56774" lon="0.50128">
        <ele>95</ele>
        <time>2022-10-07T22:32:57Z</time>
      </trkpt>
      <trkpt lat="47.56774" lon="0.50154">
        <ele>96</ele>
        <time>2022-10-07T22:33:20Z</time>
      </trkpt>
      <trkpt lat="47.5677" lon="0.50164">
        <ele>97</ele>
        <time>2022-10-07T22:33:31Z</time>
      </trkpt>
      <trkpt lat="47.56782" lon="0.5019">
        <ele>96</ele>
        <time>2022-10-07T22:33:59Z</time>
      </trkpt>
      <trkpt lat="47.56832" lon="0.5028">
        <ele>96</ele>
        <time>2022-10-07T22:35:44Z</time>
      </trkpt>
      <trkpt lat="47.56851" lon="0.50309">
        <ele>96</ele>
        <time>2022-10-07T22:36:20Z</time>
      </trkpt>
      <trkpt lat="47.56864" lon="0.50327">
        <ele>96</ele>
        <time>2022-10-07T22:36:44Z</time>
      </trkpt>
      <trkpt lat="47.56906" lon="0.5037">
        <ele>96</ele>
        <time>2022-10-07T22:37:52Z</time>
      </trkpt>
      <trkpt lat="47.56917" lon="0.50387">
        <ele>97</ele>
        <time>2022-10-07T22:38:13Z</time>
      </trkpt>
      <trkpt lat="47.56925" lon="0.50408">
        <ele>97</ele>
        <time>2022-10-07T22:38:35Z</time>
      </trkpt>
      <trkpt lat="47.56943" lon="0.50478">
        <ele>97</ele>
        <time>2022-10-07T22:39:43Z</time>
      </trkpt>
      <trkpt lat="47.5695" lon="0.50499">
        <ele>98</ele>
        <time>2022-10-07T22:40:04Z</time>
      </trkpt>
      <trkpt lat="47.57032" lon="0.507">
        <ele>96</ele>
        <time>2022-10-07T22:43:35Z</time>
      </trkpt>
      <trkpt lat="47.57038" lon="0.50698">
        <ele>96</ele>
        <time>2022-10-07T22:43:43Z</time>
      </trkpt>
      <trkpt lat="47.57046" lon="0.50682">
        <ele>95</ele>
        <time>2022-10-07T22:44:01Z</time>
      </trkpt>
      <trkpt lat="47.57403" lon="0.49935">
        <ele>90</ele>
        <time>2022-10-07T22:57:45Z</time>
      </trkpt>
      <trkpt lat="47.57432" lon="0.49876">
        <ele>93</ele>
        <time>2022-10-07T22:58:51Z</time>
      </trkpt>
      <trkpt lat="47.57461" lon="0.49825">
        <ele>94</ele>
        <time>2022-10-07T22:59:51Z</time>
      </trkpt>
      <trkpt lat="47.57482" lon="0.49797">
        <ele>94</ele>
        <time>2022-10-07T23:00:29Z</time>
      </trkpt>
      <trkpt lat="47.57506" lon="0.4977">
        <ele>94</ele>
        <time>2022-10-07T23:01:09Z</time>
      </trkpt>
      <trkpt lat="47.57567" lon="0.49702">
        <ele>92</ele>
        <time>2022-10-07T23:02:51Z</time>
      </trkpt>
      <trkpt lat="47.57699" lon="0.4955">
        <ele>96</ele>
        <time>2022-10-07T23:06:34Z</time>
      </trkpt>
      <trkpt lat="47.57734" lon="0.49513">
        <ele>98</ele>
        <time>2022-10-07T23:07:31Z</time>
      </trkpt>
      <trkpt lat="47.57757" lon="0.49491">
        <ele>99</ele>
        <time>2022-10-07T23:08:08Z</time>
      </trkpt>
      <trkpt lat="47.57796" lon="0.49466">
        <ele>101</ele>
        <time>2022-10-07T23:09:05Z</time>
      </trkpt>
      <trkpt lat="47.57944" lon="0.49389">
        <ele>106</ele>
        <time>2022-10-07T23:12:34Z</time>
      </trkpt>
      <trkpt lat="47.57986" lon="0.49364">
        <ele>108</ele>
        <time>2022-10-07T23:13:34Z</time>
      </trkpt>
      <trkpt lat="47.58014" lon="0.49344">
        <ele>109</ele>
        <time>2022-10-07T23:14:16Z</time>
      </trkpt>
      <trkpt lat="47.58026" lon="0.49331">
        <ele>108</ele>
        <time>2022-10-07T23:14:36Z</time>
      </trkpt>
      <trkpt lat="47.58051" lon="0.49295">
        <ele>107</ele>
        <time>2022-10-07T23:15:22Z</time>
      </trkpt>
      <trkpt lat="47.58058" lon="0.4929">
        <ele>107</ele>
        <time>2022-10-07T23:15:33Z</time>
      </trkpt>
      <trkpt lat="47.58065" lon="0.493">
        <ele>107</ele>
        <time>2022-10-07T23:15:46Z</time>
      </trkpt>
      <trkpt lat="47.58072" lon="0.49319">
        <ele>107</ele>
        <time>2022-10-07T23:16:05Z</time>
      </trkpt>
      <trkpt lat="47.58072" lon="0.49337">
        <ele>107</ele>
        <time>2022-10-07T23:16:21Z</time>
      </trkpt>
      <trkpt lat="47.58067" lon="0.49384">
        <ele>108</ele>
        <time>2022-10-07T23:17:04Z</time>
      </trkpt>
      <trkpt lat="47.58048" lon="0.49484">
        <ele>109</ele>
        <time>2022-10-07T23:18:38Z</time>
      </trkpt>
      <trkpt lat="47.58039" lon="0.49554">
        <ele>107</ele>
        <time>2022-10-07T23:19:42Z</time>
      </trkpt>
      <trkpt lat="47.58038" lon="0.49588">
        <ele>105</ele>
        <time>2022-10-07T23:20:12Z</time>
      </trkpt>
      <trkpt lat="47.5804" lon="0.49641">
        <ele>103</ele>
        <time>2022-10-07T23:21:00Z</time>
      </trkpt>
      <trkpt lat="47.58039" lon="0.49696">
        <ele>102</ele>
        <time>2022-10-07T23:21:50Z</time>
      </trkpt>
      <trkpt lat="47.58035" lon="0.49744">
        <ele>101</ele>
        <time>2022-10-07T23:22:33Z</time>
      </trkpt>
      <trkpt lat="47.58018" lon="0.49898">
        <ele>101</ele>
        <time>2022-10-07T23:24:54Z</time>
      </trkpt>
      <trkpt lat="47.5801" lon="0.49958">
        <ele>101</ele>
        <time>2022-10-07T23:25:49Z</time>
      </trkpt>
      <trkpt lat="47.57997" lon="0.50017">
        <ele>100</ele>
        <time>2022-10-07T23:26:45Z</time>
      </trkpt>
      <trkpt lat="47.57984" lon="0.5006">
        <ele>99</ele>
        <time>2022-10-07T23:27:27Z</time>
      </trkpt>
      <trkpt lat="47.57955" lon="0.50127">
        <ele>98</ele>
        <time>2022-10-07T23:28:39Z</time>
      </trkpt>
      <trkpt lat="47.5795" lon="0.50143">
        <ele>98</ele>
        <time>2022-10-07T23:28:55Z</time>
      </trkpt>
      <trkpt lat="47.57952" lon="0.5016">
        <ele>98</ele>
        <time>2022-10-07T23:29:10Z</time>
      </trkpt>
      <trkpt lat="47.57963" lon="0.50167">
        <ele>99</ele>
        <time>2022-10-07T23:29:26Z</time>
      </trkpt>
      <trkpt lat="47.57975" lon="0.50164">
        <ele>99</ele>
        <time>2022-10-07T23:29:42Z</time>
      </trkpt>
      <trkpt lat="47.57987" lon="0.50157">
        <ele>99</ele>
        <time>2022-10-07T23:30:00Z</time>
      </trkpt>
      <trkpt lat="47.57997" lon="0.50155">
        <ele>99</ele>
        <time>2022-10-07T23:30:13Z</time>
      </trkpt>
      <trkpt lat="47.58004" lon="0.50164">
        <ele>99</ele>
        <time>2022-10-07T23:30:25Z</time>
      </trkpt>
      <trkpt lat="47.5801" lon="0.50183">
        <ele>99</ele>
        <time>2022-10-07T23:30:44Z</time>
      </trkpt>
      <trkpt lat="47.58018" lon="0.50211">
        <ele>99</ele>
        <time>2022-10-07T23:31:12Z</time>
      </trkpt>
      <trkpt lat="47.58033" lon="0.50274">
        <ele>98</ele>
        <time>2022-10-07T23:32:12Z</time>
      </trkpt>
      <trkpt lat="47.58035" lon="0.50291">
        <ele>98</ele>
        <time>2022-10-07T23:32:27Z</time>
      </trkpt>
      <trkpt lat="47.5803" lon="0.50356">
        <ele>98</ele>
        <time>2022-10-07T23:33:26Z</time>
      </trkpt>
      <trkpt lat="47.58035" lon="0.504">
        <ele>97</ele>
        <time>2022-10-07T23:34:06Z</time>
      </trkpt>
      <trkpt lat="47.58052" lon="0.50451">
        <ele>96</ele>
        <time>2022-10-07T23:34:58Z</time>
      </trkpt>
      <trkpt lat="47.58059" lon="0.50479">
        <ele>96</ele>
        <time>2022-10-07T23:35:24Z</time>
      </trkpt>
      <trkpt lat="47.5806" lon="0.50481">
        <ele>96</ele>
        <time>2022-10-07T23:35:27Z</time>
      </trkpt>
      <trkpt lat="47.58053" lon="0.50474">
        <ele>96</ele>
        <time>2022-10-07T23:35:38Z</time>
        <extensions>
          <visugpx:TrkExtension xmlns:visugpx="https://www.visugpx.com/editgpx/">
            <visugpx:node>1</visugpx:node>
            </visugpx:TrkExtension>
        </extensions>
      </trkpt>
    </trkseg>
  </trk>
</gpx>